createdAt,value
2024-03-10T00:00:00.000Z,8.83
2024-03-10T00:15:00.000Z,8.06
2024-03-10T00:30:00.000Z,7.73
2024-03-10T00:45:00.000Z,9.41
2024-03-10T01:00:00.000Z,11.42
2024-03-10T01:15:00.000Z,11.73
2024-03-10T01:30:00.000Z,11.95
2024-03-10T01:45:00.000Z,11.8
2024-03-10T02:00:00.000Z,9.69
2024-03-10T02:15:00.000Z,9
2024-03-10T02:30:00.000Z,8.6
2024-03-10T02:45:00.000Z,8
2024-03-10T03:00:00.000Z,7.89
2024-03-10T03:15:00.000Z,7.69
2024-03-10T03:30:00.000Z,8
2024-03-10T03:45:00.000Z,7.86
2024-03-10T04:00:00.000Z,10.11
2024-03-10T04:15:00.000Z,9.83
2024-03-10T04:30:00.000Z,8.07
2024-03-10T04:45:00.000Z,8.99
2024-03-10T05:00:00.000Z,9.01
2024-03-10T05:15:00.000Z,7.85
2024-03-10T05:30:00.000Z,7.52
2024-03-10T05:45:00.000Z,7.29
2024-03-10T06:00:00.000Z,7.09
2024-03-10T06:15:00.000Z,6.96
2024-03-10T06:30:00.000Z,6.88
2024-03-10T06:45:00.000Z,6.68
2024-03-10T07:00:00.000Z,6.97
2024-03-10T07:15:00.000Z,7.05
2024-03-10T07:30:00.000Z,7.03
2024-03-10T07:45:00.000Z,6.94
2024-03-10T08:00:00.000Z,7.15
2024-03-10T08:15:00.000Z,7.68
2024-03-10T08:30:00.000Z,8.76
2024-03-10T08:45:00.000Z,10.88
2024-03-10T09:00:00.000Z,12.4
2024-03-10T09:15:00.000Z,13.35
2024-03-10T09:30:00.000Z,13.69
2024-03-10T09:45:00.000Z,14.6
2024-03-10T10:00:00.000Z,15.16
2024-03-10T10:15:00.000Z,16.09
2024-03-10T10:30:00.000Z,15.88
2024-03-10T10:45:00.000Z,16.42
2024-03-10T11:00:00.000Z,16.42
2024-03-10T11:15:00.000Z,16.8
2024-03-10T11:30:00.000Z,16.84
2024-03-10T11:45:00.000Z,17.08
2024-03-10T12:00:00.000Z,17.27
2024-03-10T12:15:00.000Z,16.91
2024-03-10T12:30:00.000Z,16.7
2024-03-10T12:45:00.000Z,16.78
2024-03-10T13:00:00.000Z,16.9
2024-03-10T13:15:00.000Z,17.4
2024-03-10T13:30:00.000Z,17.64
2024-03-10T13:45:00.000Z,17.54
2024-03-10T14:00:00.000Z,17.87
2024-03-10T14:15:00.000Z,17.73
2024-03-10T14:30:00.000Z,17.87
2024-03-10T14:45:00.000Z,17.24
2024-03-10T15:00:00.000Z,17.76
2024-03-10T15:15:00.000Z,17.75
2024-03-10T15:30:00.000Z,17.47
2024-03-10T15:45:00.000Z,17.01
2024-03-10T16:00:00.000Z,16.64
2024-03-10T16:15:00.000Z,16.59
2024-03-10T16:30:00.000Z,16.27
2024-03-10T16:45:00.000Z,16.02
2024-03-10T17:00:00.000Z,15.78
2024-03-10T17:15:00.000Z,15.51
2024-03-10T17:30:00.000Z,15.49
2024-03-10T17:45:00.000Z,15.64
2024-03-10T18:00:00.000Z,15.44
2024-03-10T18:15:00.000Z,15.45
2024-03-10T18:30:00.000Z,15.46
2024-03-10T18:45:00.000Z,15.61
2024-03-10T19:00:00.000Z,15.87
2024-03-10T19:15:00.000Z,15.86
2024-03-10T19:30:00.000Z,15.15
2024-03-10T19:45:00.000Z,13.78
2024-03-10T20:00:00.000Z,13.18
2024-03-10T20:15:00.000Z,12.36
2024-03-10T20:30:00.000Z,11.83
2024-03-10T20:45:00.000Z,11.42
2024-03-10T21:00:00.000Z,11.05
2024-03-10T21:15:00.000Z,10.91
2024-03-10T21:30:00.000Z,10.74
2024-03-10T21:45:00.000Z,10.53
2024-03-10T22:00:00.000Z,10.33
2024-03-10T22:15:00.000Z,10.04
2024-03-10T22:30:00.000Z,9.78
2024-03-10T22:45:00.000Z,9.56
2024-03-10T23:00:00.000Z,9.43
2024-03-10T23:15:00.000Z,9.23
2024-03-10T23:30:00.000Z,9.03
2024-03-10T23:45:00.000Z,8.7
